createdAt,value
2022-08-05T00:01:35.490Z,76.92
2022-08-05T00:04:15.964Z,77.92
2022-08-05T00:06:42.981Z,76.73
2022-08-05T00:09:12.730Z,77.55
2022-08-05T00:11:47.479Z,78.00
2022-08-05T00:14:17.076Z,78.02
2022-08-05T00:16:52.123Z,78.34
2022-08-05T00:19:22.235Z,79.09
2022-08-05T00:21:49.085Z,77.11
2022-08-05T00:24:16.230Z,76.56
2022-08-05T00:26:52.144Z,77.25
2022-08-05T00:29:25.547Z,77.92
2022-08-05T00:32:12.382Z,77.16
2022-08-05T00:34:54.742Z,81.44
2022-08-05T00:37:35.474Z,81.77
2022-08-05T00:40:14.452Z,84.61
2022-08-05T00:42:44.580Z,83.81
2022-08-05T00:45:15.732Z,82.99
2022-08-05T00:47:56.657Z,82.74
2022-08-05T00:50:25.416Z,81.97
2022-08-05T00:52:54.897Z,82.82
2022-08-05T00:55:21.695Z,81.36
2022-08-05T00:57:57.992Z,81.27
2022-08-05T01:00:29.727Z,80.37
2022-08-05T01:02:57.353Z,79.25
2022-08-05T01:05:27.431Z,81.07
2022-08-05T01:08:40.929Z,81.18
2022-08-05T01:10:51.665Z,83.15
2022-08-05T01:13:58.241Z,81.44
2022-08-05T01:16:40.992Z,83.05
2022-08-05T01:19:20.238Z,83.58
2022-08-05T01:22:28.135Z,84.42
2022-08-05T01:25:04.641Z,83.98
2022-08-05T01:27:55.360Z,82.42
2022-08-05T01:30:34.036Z,81.25
2022-08-05T01:33:03.663Z,84.14
2022-08-05T01:35:51.294Z,84.80
2022-08-05T01:38:27.332Z,85.89
2022-08-05T01:40:58.275Z,83.02
2022-08-05T01:43:26.812Z,82.25
2022-08-05T01:45:56.249Z,83.96
2022-08-05T01:48:25.158Z,81.59
2022-08-05T01:50:52.417Z,81.38
2022-08-05T01:53:55.248Z,81.09
2022-08-05T01:56:09.561Z,81.66
2022-08-05T01:58:44.676Z,81.50
2022-08-05T02:01:13.483Z,81.96
2022-08-05T02:03:46.181Z,81.21
2022-08-05T02:06:37.599Z,81.82
2022-08-05T02:08:59.541Z,82.28
2022-08-05T02:11:33.548Z,85.12
2022-08-05T02:14:17.822Z,83.53
2022-08-05T02:16:52.896Z,83.06
2022-08-05T02:19:34.526Z,80.97
2022-08-05T02:22:26.362Z,81.11
2022-08-05T02:25:00.187Z,80.36
2022-08-05T02:27:29.865Z,81.97
2022-08-05T02:30:13.933Z,80.88
2022-08-05T02:32:41.189Z,81.44
2022-08-05T02:35:14.524Z,80.97
2022-08-05T02:37:53.939Z,81.59
2022-08-05T02:40:22.107Z,82.45
2022-08-05T02:42:53.049Z,81.63
2022-08-05T02:45:23.889Z,82.37
2022-08-05T02:48:06.839Z,81.63
2022-08-05T02:50:43.772Z,80.95
2022-08-05T02:53:11.979Z,81.57
2022-08-05T02:55:54.065Z,81.66
2022-08-05T02:58:26.835Z,81.61
2022-08-05T03:00:56.164Z,82.30
2022-08-05T03:03:23.644Z,81.14
2022-08-05T03:06:56.160Z,82.10
2022-08-05T03:08:42.762Z,82.62
2022-08-05T03:11:55.114Z,82.77
2022-08-05T03:14:13.400Z,81.62
2022-08-05T03:16:40.749Z,81.67
2022-08-05T03:19:17.210Z,83.23
2022-08-05T03:21:54.463Z,82.66
2022-08-05T03:24:29.488Z,82.15
2022-08-05T03:27:00.449Z,81.59
2022-08-05T03:29:46.047Z,81.49
2022-08-05T03:32:19.420Z,81.74
2022-08-05T03:34:51.040Z,82.06
2022-08-05T03:37:19.253Z,81.07
2022-08-05T03:39:58.593Z,81.53
2022-08-05T03:42:27.146Z,81.82
2022-08-05T03:44:55.425Z,81.20
2022-08-05T03:47:23.792Z,81.86
2022-08-05T03:49:52.161Z,81.78
2022-08-05T03:52:49.155Z,83.04
2022-08-05T03:55:52.702Z,82.18
2022-08-05T03:58:05.505Z,81.76
2022-08-05T04:00:32.484Z,82.48
2022-08-05T04:03:02.747Z,81.90
2022-08-05T04:05:34.677Z,81.42
2022-08-05T04:08:30.014Z,82.17
2022-08-05T04:10:53.492Z,83.66
2022-08-05T04:13:21.635Z,83.81
2022-08-05T04:16:03.123Z,84.03
2022-08-05T04:18:32.296Z,85.23
2022-08-05T04:21:01.261Z,85.11
2022-08-05T04:24:05.256Z,84.53
2022-08-05T04:26:15.453Z,84.46
2022-08-05T04:28:51.136Z,86.28
2022-08-05T04:31:19.375Z,86.45
2022-08-05T04:34:17.269Z,86.89
2022-08-05T04:36:49.468Z,86.50
2022-08-05T04:39:17.786Z,85.91
2022-08-05T04:41:44.826Z,87.64
2022-08-05T04:44:12.414Z,86.38
2022-08-05T04:46:38.924Z,86.70
2022-08-05T04:49:14.698Z,86.81
2022-08-05T04:51:42.714Z,87.70
2022-08-05T04:54:10.002Z,87.69
2022-08-05T04:56:38.414Z,86.99
2022-08-05T04:59:26.623Z,85.54
2022-08-05T05:02:07.230Z,84.74
2022-08-05T05:04:38.755Z,87.26
2022-08-05T05:07:15.993Z,87.51
2022-08-05T05:09:43.689Z,87.33
2022-08-05T05:12:10.959Z,85.47
2022-08-05T05:14:38.200Z,85.66
2022-08-05T05:17:19.894Z,85.96
2022-08-05T05:19:50.218Z,86.52
2022-08-05T05:22:23.635Z,87.40
2022-08-05T05:24:57.319Z,87.73
2022-08-05T05:27:45.015Z,86.90
2022-08-05T05:30:29.433Z,87.99
2022-08-05T05:33:00.919Z,87.94
2022-08-05T05:35:34.449Z,88.09
2022-08-05T05:38:13.440Z,88.86
2022-08-05T05:40:48.308Z,90.50
2022-08-05T05:43:56.430Z,91.95
2022-08-05T05:46:16.042Z,91.83
2022-08-05T05:48:44.744Z,91.23
2022-08-05T05:51:18.692Z,90.24
2022-08-05T05:53:46.084Z,89.40
2022-08-05T05:56:31.392Z,89.42
2022-08-05T05:59:03.199Z,89.17
2022-08-05T06:01:37.396Z,88.64
2022-08-05T06:04:11.785Z,89.03
2022-08-05T06:06:41.818Z,87.94
2022-08-05T06:09:08.827Z,86.96
2022-08-05T06:11:35.390Z,86.47
2022-08-05T06:14:06.028Z,86.46
2022-08-05T06:16:36.693Z,87.56
2022-08-05T06:19:05.646Z,86.72
2022-08-05T06:21:36.898Z,86.68
2022-08-05T06:24:06.340Z,86.18
2022-08-05T06:26:38.126Z,87.53
2022-08-05T06:29:23.565Z,86.40
2022-08-05T06:31:51.152Z,86.07
2022-08-05T06:34:20.062Z,86.72
2022-08-05T06:36:57.583Z,87.47
2022-08-05T06:39:27.317Z,86.20
2022-08-05T06:41:58.629Z,87.43
2022-08-05T06:44:25.998Z,87.48
2022-08-05T06:46:52.572Z,85.80
2022-08-05T06:49:21.306Z,87.48
2022-08-05T06:51:48.404Z,88.04
2022-08-05T06:54:19.035Z,88.51
2022-08-05T06:56:54.663Z,88.32
2022-08-05T06:59:38.637Z,88.43
2022-08-05T07:02:08.869Z,88.93
2022-08-05T07:04:35.386Z,86.98
2022-08-05T07:07:03.255Z,84.38
2022-08-05T07:09:40.422Z,84.00
2022-08-05T07:12:08.156Z,84.37
2022-08-05T07:14:54.110Z,83.67
2022-08-05T07:18:08.390Z,83.76
2022-08-05T07:20:32.181Z,83.57
2022-08-05T07:22:54.474Z,83.34
2022-08-05T07:25:54.272Z,83.08
2022-08-05T07:28:11.529Z,82.36
2022-08-05T07:30:39.881Z,82.33
2022-08-05T07:33:17.081Z,82.95
2022-08-05T07:36:05.388Z,81.81
2022-08-05T07:38:34.760Z,80.56
2022-08-05T07:42:09.498Z,80.90
2022-08-05T07:43:55.058Z,80.32
2022-08-05T07:46:25.279Z,79.59
2022-08-05T07:49:02.857Z,80.68
2022-08-05T07:51:36.663Z,80.23
2022-08-05T07:54:04.440Z,83.36
2022-08-05T07:57:00.161Z,81.26
2022-08-05T07:59:18.115Z,80.65
2022-08-05T08:01:52.404Z,82.20
2022-08-05T08:04:37.750Z,82.24
2022-08-05T08:07:07.446Z,80.03
2022-08-05T08:09:34.548Z,78.39
2022-08-05T08:12:09.048Z,79.54
2022-08-05T08:14:42.216Z,81.30
2022-08-05T08:17:16.270Z,79.34
2022-08-05T08:20:22.308Z,80.67
2022-08-05T08:22:30.919Z,81.46
2022-08-05T08:25:03.200Z,82.72
2022-08-05T08:27:47.567Z,84.23
2022-08-05T08:30:29.857Z,84.55
2022-08-05T08:33:04.658Z,82.54
2022-08-05T08:35:41.383Z,82.25
2022-08-05T08:38:35.350Z,83.02
2022-08-05T08:41:07.367Z,81.96
2022-08-05T08:45:20.312Z,81.05
2022-08-05T08:46:24.073Z,81.32
2022-08-05T08:49:08.100Z,80.71
2022-08-05T08:52:06.345Z,80.98
2022-08-05T08:54:27.795Z,81.42
2022-08-05T08:56:54.417Z,80.21
2022-08-05T08:59:23.267Z,80.09
2022-08-05T09:01:57.366Z,77.84
2022-08-05T09:04:30.308Z,76.30
2022-08-05T09:06:57.623Z,76.98
2022-08-05T09:09:24.855Z,76.50
2022-08-05T09:11:57.812Z,76.96
2022-08-05T09:14:57.192Z,78.06
2022-08-05T09:17:41.057Z,77.64
2022-08-05T09:20:06.551Z,78.30
2022-08-05T09:23:05.338Z,78.43
2022-08-05T09:26:02.570Z,78.55
2022-08-05T09:28:32.182Z,78.60
2022-08-05T09:31:22.776Z,77.69
2022-08-05T09:33:59.651Z,77.41
2022-08-05T09:36:55.602Z,76.51
2022-08-05T09:39:39.482Z,77.32
2022-08-05T09:42:23.182Z,77.04
2022-08-05T09:44:52.585Z,76.37
2022-08-05T09:47:48.344Z,76.40
2022-08-05T09:50:17.785Z,76.64
2022-08-05T09:52:58.973Z,76.84
2022-08-05T09:55:57.836Z,76.52
2022-08-05T09:58:14.258Z,76.29
2022-08-05T10:00:51.474Z,77.35
2022-08-05T10:03:17.965Z,76.98
2022-08-05T10:05:47.024Z,77.30
2022-08-05T10:08:36.444Z,75.96
2022-08-05T10:11:06.731Z,75.53
2022-08-05T10:13:45.779Z,75.84
2022-08-05T10:16:37.699Z,74.93
2022-08-05T10:19:10.068Z,75.21
2022-08-05T10:21:41.088Z,74.11
2022-08-05T10:24:30.948Z,72.17
2022-08-05T10:27:00.434Z,72.50
2022-08-05T10:30:07.024Z,72.48
2022-08-05T10:32:51.664Z,73.03
2022-08-05T10:35:03.129Z,73.17
2022-08-05T10:37:40.461Z,74.61
2022-08-05T10:40:43.418Z,74.81
2022-08-05T10:43:41.348Z,74.08
2022-08-05T10:46:10.442Z,74.11
2022-08-05T10:48:57.427Z,73.73
2022-08-05T10:51:29.003Z,73.29
2022-08-05T10:54:01.855Z,73.12
2022-08-05T10:56:45.193Z,71.87
2022-08-05T11:00:01.340Z,71.30
2022-08-05T11:02:14.521Z,71.30
2022-08-05T11:04:58.751Z,69.71
2022-08-05T11:07:33.117Z,69.86
2022-08-05T11:10:27.772Z,70.55
2022-08-05T11:12:56.987Z,69.64
2022-08-05T11:15:59.064Z,70.00
2022-08-05T11:18:32.473Z,69.96
2022-08-05T11:21:02.079Z,69.71
2022-08-05T11:24:04.449Z,69.96
2022-08-05T11:26:29.040Z,69.85
2022-08-05T11:29:12.103Z,69.88
2022-08-05T11:31:56.361Z,70.28
2022-08-05T11:34:51.951Z,69.73
2022-08-05T11:38:26.664Z,69.84
2022-08-05T11:41:34.330Z,70.13
2022-08-05T11:44:05.766Z,69.84
2022-08-05T11:46:34.901Z,70.59
2022-08-05T11:49:02.664Z,71.82
2022-08-05T11:51:43.616Z,72.32
2022-08-05T11:54:13.956Z,71.13
2022-08-05T11:56:50.176Z,71.07
2022-08-05T11:59:23.238Z,69.96
2022-08-05T12:01:53.836Z,70.88
2022-08-05T12:04:20.821Z,70.01
2022-08-05T12:06:49.133Z,70.62
2022-08-05T12:09:22.051Z,70.94
2022-08-05T12:12:09.066Z,71.03
2022-08-05T12:14:43.285Z,71.60
2022-08-05T12:18:03.133Z,71.37
2022-08-05T12:20:16.772Z,71.52
2022-08-05T12:22:48.117Z,72.86
2022-08-05T12:25:18.415Z,71.20
2022-08-05T12:27:53.486Z,71.45
2022-08-05T12:30:22.355Z,69.84
2022-08-05T12:32:58.794Z,69.12
2022-08-05T12:35:39.525Z,69.36
2022-08-05T12:38:07.160Z,69.62
2022-08-05T12:40:36.727Z,69.69
2022-08-05T12:43:06.931Z,68.90
2022-08-05T12:45:42.488Z,68.80
2022-08-05T12:48:17.367Z,68.35
2022-08-05T12:52:10.028Z,67.98
2022-08-05T12:54:02.281Z,67.47
2022-08-05T12:56:35.105Z,68.16
2022-08-05T12:59:21.134Z,66.40
2022-08-05T13:02:09.820Z,66.99
2022-08-05T13:04:41.785Z,67.50
2022-08-05T13:07:54.741Z,67.67
2022-08-05T13:10:19.568Z,66.54
2022-08-05T13:12:51.056Z,65.69
2022-08-05T13:15:35.853Z,62.71
2022-08-05T13:18:08.370Z,63.61
2022-08-05T13:20:35.493Z,65.27
2022-08-05T13:23:07.345Z,66.00
2022-08-05T13:25:52.284Z,64.30
2022-08-05T13:28:21.991Z,64.04
2022-08-05T13:30:48.839Z,65.00
2022-08-05T13:34:24.470Z,64.97
2022-08-05T13:36:05.098Z,65.62
2022-08-05T13:38:34.253Z,65.56
2022-08-05T13:41:03.882Z,64.78
2022-08-05T13:43:44.651Z,64.95
2022-08-05T13:46:12.931Z,63.27
2022-08-05T13:48:58.519Z,64.06
2022-08-05T13:51:36.373Z,65.87
2022-08-05T13:54:12.291Z,66.33
2022-08-05T13:56:44.947Z,65.32
2022-08-05T13:59:20.206Z,66.11
2022-08-05T14:01:57.784Z,66.06
2022-08-05T14:04:43.748Z,64.30
2022-08-05T14:07:55.458Z,64.66
2022-08-05T14:10:04.898Z,64.19
2022-08-05T14:12:35.227Z,65.90
2022-08-05T14:16:03.947Z,66.14
2022-08-05T14:17:48.455Z,65.98
2022-08-05T14:20:17.412Z,65.64
2022-08-05T14:22:50.227Z,65.92
2022-08-05T14:25:21.872Z,65.48
2022-08-05T14:27:49.466Z,64.06
2022-08-05T14:30:20.414Z,64.16
2022-08-05T14:32:49.246Z,64.23
2022-08-05T14:35:20.552Z,63.11
2022-08-05T14:37:52.130Z,64.38
2022-08-05T14:40:21.664Z,64.82
2022-08-05T14:42:51.029Z,65.00
2022-08-05T14:45:18.687Z,65.31
2022-08-05T14:48:05.309Z,65.69
2022-08-05T14:50:31.662Z,65.43
2022-08-05T14:52:59.509Z,64.99
2022-08-05T14:55:28.738Z,65.37
2022-08-05T14:58:11.031Z,65.20
2022-08-05T15:00:39.745Z,65.49
2022-08-05T15:03:27.776Z,65.47
2022-08-05T15:06:08.014Z,66.47
2022-08-05T15:08:58.618Z,65.57
2022-08-05T15:11:51.275Z,65.27
2022-08-05T15:14:33.232Z,65.22
2022-08-05T15:17:01.636Z,64.94
2022-08-05T15:19:30.769Z,65.00
2022-08-05T15:22:00.035Z,65.06
2022-08-05T15:24:27.398Z,65.26
2022-08-05T15:26:53.890Z,63.46
2022-08-05T15:29:22.855Z,61.77
2022-08-05T15:31:52.883Z,60.87
2022-08-05T15:34:33.099Z,59.06
2022-08-05T15:37:06.081Z,58.47
2022-08-05T15:41:00.572Z,58.51
2022-08-05T15:42:49.792Z,57.98
2022-08-05T15:45:07.295Z,58.60
2022-08-05T15:47:36.346Z,58.23
2022-08-05T15:50:03.749Z,57.46
2022-08-05T15:52:53.182Z,58.29
2022-08-05T15:55:17.582Z,57.58
2022-08-05T15:57:48.781Z,57.79
2022-08-05T16:00:32.542Z,57.74
2022-08-05T16:03:04.814Z,59.25
2022-08-05T16:05:31.958Z,58.87
2022-08-05T16:07:58.489Z,57.69
2022-08-05T16:10:26.847Z,59.04
2022-08-05T16:12:56.024Z,58.33
2022-08-05T16:15:23.168Z,57.21
2022-08-05T16:17:57.780Z,57.32
2022-08-05T16:20:25.538Z,56.41
2022-08-05T16:22:54.337Z,54.66
2022-08-05T16:25:20.852Z,55.92
2022-08-05T16:28:05.025Z,53.96
2022-08-05T16:30:33.361Z,53.85
2022-08-05T16:33:00.462Z,52.28
2022-08-05T16:35:30.735Z,52.21
2022-08-05T16:38:15.677Z,53.74
2022-08-05T16:40:45.616Z,50.65
2022-08-05T16:43:18.889Z,49.67
2022-08-05T16:46:07.730Z,51.71
2022-08-05T16:48:33.490Z,50.01
2022-08-05T16:51:01.688Z,51.54
2022-08-05T16:54:03.437Z,50.70
2022-08-05T16:56:14.616Z,51.56
2022-08-05T16:58:41.218Z,50.01
2022-08-05T17:01:10.372Z,50.89
2022-08-05T17:03:37.570Z,50.01
2022-08-05T17:06:06.136Z,50.58
2022-08-05T17:08:43.533Z,48.73
2022-08-05T17:11:20.318Z,50.21
2022-08-05T17:13:50.920Z,48.68
2022-08-05T17:16:32.932Z,49.24
2022-08-05T17:19:00.566Z,49.05
2022-08-05T17:21:36.180Z,49.04
2022-08-05T17:24:14.318Z,49.27
2022-08-05T17:26:52.416Z,49.33
2022-08-05T17:29:22.769Z,49.26
2022-08-05T17:32:00.600Z,49.03
2022-08-05T17:34:30.123Z,49.22
2022-08-05T17:36:58.725Z,49.52
2022-08-05T17:39:34.348Z,51.30
2022-08-05T17:42:17.296Z,52.50
2022-08-05T17:44:50.346Z,53.62
2022-08-05T17:47:22.509Z,53.86
2022-08-05T17:49:52.161Z,53.01
2022-08-05T17:52:27.444Z,54.21
2022-08-05T17:54:54.305Z,53.66
2022-08-05T17:57:21.955Z,54.24
2022-08-05T18:00:03.457Z,54.05
2022-08-05T18:02:31.570Z,54.49
2022-08-05T18:04:58.859Z,54.45
2022-08-05T18:07:32.805Z,54.42
2022-08-05T18:10:10.005Z,54.49
2022-08-05T18:12:37.121Z,54.19
2022-08-05T18:15:04.276Z,54.27
2022-08-05T18:18:00.523Z,53.76
2022-08-05T18:20:19.348Z,53.80
2022-08-05T18:22:57.382Z,53.20
2022-08-05T18:25:25.008Z,53.50
2022-08-05T18:27:52.532Z,51.38
2022-08-05T18:30:19.529Z,50.91
2022-08-05T18:32:53.032Z,52.33
2022-08-05T18:35:49.464Z,50.55
2022-08-05T18:38:13.236Z,51.94
2022-08-05T18:41:54.194Z,52.31
2022-08-05T18:43:31.536Z,52.20
2022-08-05T18:46:04.700Z,51.96
2022-08-05T18:48:33.294Z,52.40
2022-08-05T18:52:04.015Z,52.38
2022-08-05T18:54:05.738Z,51.04
2022-08-05T18:56:32.820Z,53.02
2022-08-05T18:59:01.179Z,51.29
2022-08-05T19:01:33.489Z,52.66
2022-08-05T19:04:14.862Z,52.29
2022-08-05T19:06:50.775Z,52.47
2022-08-05T19:09:17.497Z,53.98
2022-08-05T19:12:00.130Z,54.05
2022-08-05T19:14:59.303Z,55.05
2022-08-05T19:17:14.762Z,55.12
2022-08-05T19:19:48.514Z,55.44
2022-08-05T19:22:22.644Z,55.95
2022-08-05T19:24:54.346Z,56.02
2022-08-05T19:27:24.033Z,56.24
2022-08-05T19:29:52.278Z,57.21
2022-08-05T19:32:18.857Z,57.19
2022-08-05T19:34:54.625Z,57.42
2022-08-05T19:37:35.057Z,57.16
2022-08-05T19:40:12.071Z,57.43
2022-08-05T19:42:38.970Z,57.81
2022-08-05T19:45:07.106Z,57.79
2022-08-05T19:47:37.683Z,57.61
2022-08-05T19:50:07.510Z,57.33
2022-08-05T19:52:37.012Z,58.11
2022-08-05T19:55:06.811Z,57.03
2022-08-05T19:58:02.671Z,58.00
2022-08-05T20:00:22.167Z,57.56
2022-08-05T20:02:48.636Z,57.17
2022-08-05T20:05:16.660Z,57.75
2022-08-05T20:07:53.867Z,58.02
2022-08-05T20:10:25.020Z,57.99
2022-08-05T20:12:52.213Z,57.90
2022-08-05T20:15:47.822Z,58.29
2022-08-05T20:18:10.413Z,57.84
2022-08-05T20:20:56.254Z,58.57
2022-08-05T20:23:23.969Z,58.62
2022-08-05T20:26:07.813Z,59.02
2022-08-05T20:28:34.499Z,59.28
2022-08-05T20:31:02.675Z,59.22
2022-08-05T20:33:29.394Z,59.15
2022-08-05T20:35:57.540Z,59.19
2022-08-05T20:38:26.832Z,59.60
2022-08-05T20:40:55.488Z,59.60
2022-08-05T20:43:57.600Z,59.78
2022-08-05T20:46:11.000Z,60.14
2022-08-05T20:48:51.292Z,59.05
2022-08-05T20:51:17.900Z,60.36
2022-08-05T20:53:44.382Z,61.34
2022-08-05T20:56:28.091Z,60.06
2022-08-05T20:58:56.639Z,59.88
2022-08-05T21:01:38.304Z,60.24
2022-08-05T21:04:07.219Z,60.33
2022-08-05T21:06:36.797Z,60.93
2022-08-05T21:09:05.524Z,60.26
2022-08-05T21:12:07.639Z,59.96
2022-08-05T21:14:18.624Z,60.56
2022-08-05T21:16:45.522Z,60.30
2022-08-05T21:19:12.054Z,60.28
2022-08-05T21:21:39.670Z,60.97
2022-08-05T21:24:19.305Z,61.45
2022-08-05T21:26:53.434Z,61.68
2022-08-05T21:29:26.632Z,62.34
2022-08-05T21:31:58.331Z,60.85
2022-08-05T21:34:24.779Z,61.41
2022-08-05T21:36:51.281Z,61.21
2022-08-05T21:39:26.569Z,62.08
2022-08-05T21:42:01.205Z,61.64
2022-08-05T21:44:28.933Z,62.49
2022-08-05T21:46:58.336Z,62.39
2022-08-05T21:49:48.587Z,62.73
2022-08-05T21:52:22.082Z,62.28
2022-08-05T21:54:56.163Z,61.50
2022-08-05T21:57:31.696Z,62.87
2022-08-05T22:00:07.096Z,61.97
2022-08-05T22:02:38.087Z,62.09
2022-08-05T22:05:05.049Z,63.09
2022-08-05T22:07:39.773Z,62.66
2022-08-05T22:10:27.065Z,62.48
2022-08-05T22:12:57.168Z,62.54
2022-08-05T22:16:01.397Z,62.60
2022-08-05T22:18:11.132Z,62.57
2022-08-05T22:20:39.165Z,63.52
2022-08-05T22:24:02.337Z,63.66
2022-08-05T22:26:30.689Z,63.70
2022-08-05T22:28:57.358Z,63.99
2022-08-05T22:31:24.847Z,65.85
2022-08-05T22:34:01.084Z,64.17
2022-08-05T22:36:28.249Z,63.51
2022-08-05T22:38:55.983Z,64.41
2022-08-05T22:42:04.881Z,63.79
2022-08-05T22:44:10.110Z,64.63
2022-08-05T22:46:40.730Z,64.62
2022-08-05T22:50:18.033Z,64.60
2022-08-05T22:52:06.019Z,64.74
2022-08-05T22:54:35.029Z,65.31
2022-08-05T22:57:01.617Z,65.47
2022-08-05T22:59:45.975Z,65.91
2022-08-05T23:02:17.380Z,65.95
2022-08-05T23:04:51.902Z,66.11
2022-08-05T23:07:19.317Z,66.37
2022-08-05T23:09:57.127Z,66.50
2022-08-05T23:12:28.869Z,65.52
2022-08-05T23:14:55.512Z,65.83
2022-08-05T23:17:34.060Z,66.51
2022-08-05T23:20:02.685Z,65.18
2022-08-05T23:22:29.766Z,66.76
2022-08-05T23:24:57.513Z,66.25
2022-08-05T23:27:24.210Z,67.02
2022-08-05T23:29:58.188Z,66.91
2022-08-05T23:32:25.928Z,67.83
2022-08-05T23:34:53.827Z,68.58
2022-08-05T23:37:20.277Z,69.13
2022-08-05T23:39:54.423Z,69.43
2022-08-05T23:42:29.010Z,69.36
2022-08-05T23:44:56.459Z,70.25
2022-08-05T23:47:24.990Z,71.38
2022-08-05T23:49:52.168Z,71.95
2022-08-05T23:52:36.153Z,72.09
2022-08-05T23:55:16.170Z,73.17
2022-08-05T23:57:44.065Z,72.23
